Hovedside
METAR-TAF:

METAR-TAF

Lufthavner :

Gran Canaria internasjonale lufthavn

Gran Canaria, Spania

breddegrad: 27-56N, lengdegrad: 015-23W, høyde over havet: 23 m

Gjeldene værobservasjon

Denne rapporten ble laget for 22 minutter siden, klokken 17:30 UTC
Vind 14 kt fra Nord, skiftende mellom Nord-nordvest og Nord-nordøst
Temperatur 21°C
Luftfuktighet 56%
Trykk 1023 hPa
Sikt 10 km eller mer
Brutte skyer i en høyde av 3800 ft

METAR: GCLP 121730Z 36014KT 330V030 9999 BKN038 21/12 Q1023 NOSIG

Tid: 17:52 (17:52 UTC)

Varsel

Denne rapporten ble laget for 3 timer og 52 minutter siden, klokken 14:00 UTC
Varsel gyldig fra 12. klokken 15 UTC til 13. klokken 15 UTC
Vind 17 kt fra Nord
Sikt 10 km eller mer
Brutte skyer i en høyde av 3500 ft

TAF: GCLP 121400Z 1215/1315 01017KT 9999 BKN035 TX22/1314Z TN18/1306Z

Værobservasjoner og værvarsel for over 4000 flyplasser (METAR- og TAF-rapporter).

Tilgjengelige stasjoner er representert av de røde og gule prikkene på kartet.

Hold musepekeren over prikken for å se navnet på stasjonen.

Klikk så for å se værobservasjoner og -varsler.

For å forandre kartet kan du klikke på den grønne knappen med svart kryss for å zoome inn, på den grønne knappen med strek for å zoome ut, eller på de grønne pilene for å se tilstøtende kart.


METAR-TAF: